Time;durP1;ratioP1;P1;durP2;ratioP2;P2;SDS_P1;SDS_P2;PMS_P1;PMS_P2;Temp;Humidity;BMP_temperature;BMP_pressure;BME280_temperature;BME280_humidity;BME280_pressure;Samples;Min_cycle;Max_cycle;Signal;HPM_P1;HPM_P2
2021/03/06 00:02:42;;;;;;;9.20;5.80;;;;;;;-3.48;82.99;100772.38;5037467;28;20633;-96
2021/03/06 00:05:41;;;;;;;9.07;5.70;;;;;;;-3.56;83.18;100753.72;5020464;28;20229;-91
2021/03/06 00:08:28;;;;;;;9.77;5.87;;;;;;;-3.44;83.65;100775.63;5023502;28;20309;-91
2021/03/06 00:11:24;;;;;;;9.73;6.07;;;;;;;-3.75;83.19;100729.69;5037468;28;20219;-96
2021/03/06 00:14:15;;;;;;;8.30;5.77;;;;;;;-3.56;83.57;100762.41;5005774;28;20227;-95
2021/03/06 00:17:12;;;;;;;9.57;6.43;;;;;;;-3.51;83.20;100766.50;5017445;28;20238;-95
2021/03/06 00:20:05;;;;;;;8.13;6.03;;;;;;;-3.53;83.51;100774.47;5004002;28;20230;-94
2021/03/06 00:22:45;;;;;;;9.60;6.03;;;;;;;-3.54;83.33;100772.78;5015764;28;20222;-95
2021/03/06 00:25:40;;;;;;;9.40;5.90;;;;;;;-3.48;83.26;100768.91;5018135;28;20237;-94
2021/03/06 00:28:34;;;;;;;6.40;5.37;;;;;;;-3.44;82.40;100767.75;5017814;28;20241;-95
2021/03/06 00:31:26;;;;;;;8.03;6.13;;;;;;;-3.46;82.68;100767.03;4984342;28;20223;-95
2021/03/06 00:34:16;;;;;;;7.33;5.70;;;;;;;-3.43;81.92;100770.28;4997120;28;20227;-91
2021/03/06 00:37:02;;;;;;;7.30;5.90;;;;;;;-3.43;81.70;100767.66;4997595;28;20306;-94
2021/03/06 00:39:51;;;;;;;8.77;5.90;;;;;;;-3.45;81.38;100781.81;5016584;28;20326;-93
2021/03/06 00:42:29;;;;;;;8.40;5.70;;;;;;;-3.40;81.54;100795.44;5000294;28;20226;-91
2021/03/06 00:45:15;;;;;;;9.37;6.50;;;;;;;-3.50;82.07;100792.63;5020805;28;20280;-91
2021/03/06 00:48:11;;;;;;;7.10;5.50;;;;;;;-3.55;82.76;100782.41;5016448;28;20223;-94
2021/03/06 00:51:07;;;;;;;10.03;5.77;;;;;;;-3.57;82.41;100784.31;5003219;28;20734;-95
2021/03/06 00:54:11;;;;;;;8.00;5.30;;;;;;;-3.46;82.96;100788.00;4987619;28;20231;-88
2021/03/06 00:57:06;;;;;;;8.03;5.87;;;;;;;-3.60;82.47;100786.31;5016908;28;20230;-94
2021/03/06 00:59:58;;;;;;;7.43;5.70;;;;;;;-3.65;82.96;100796.25;5003057;28;20244;-95
2021/03/06 01:02:53;;;;;;;7.67;5.47;;;;;;;-3.79;83.14;100752.63;5036668;28;20225;-94
2021/03/06 01:05:49;;;;;;;9.97;6.03;;;;;;;-3.62;82.34;100786.38;5021907;28;20221;-93
2021/03/06 01:08:51;;;;;;;7.40;5.40;;;;;;;-3.77;83.40;100760.34;5022671;28;20222;-94
2021/03/06 01:11:43;;;;;;;8.27;5.40;;;;;;;-3.74;83.03;100779.34;5005975;28;20222;-93
2021/03/06 01:14:32;;;;;;;6.40;5.27;;;;;;;-3.74;82.70;100776.72;5009239;28;20227;-94
2021/03/06 01:17:21;;;;;;;8.37;5.80;;;;;;;-3.81;83.15;100771.97;5016806;28;20237;-93
2021/03/06 01:20:16;;;;;;;6.87;5.53;;;;;;;-3.78;83.38;100775.22;5033316;28;20226;-95
2021/03/06 01:23:08;;;;;;;7.90;5.80;;;;;;;-3.94;83.52;100769.34;5035550;28;20668;-89
2021/03/06 01:26:12;;;;;;;7.47;5.40;;;;;;;-3.99;83.55;100763.56;4984018;28;20231;-92
2021/03/06 01:29:10;;;;;;;6.93;5.20;;;;;;;-3.94;83.59;100779.81;4994985;28;20967;-94
2021/03/06 01:32:04;;;;;;;11.00;5.63;;;;;;;-3.99;83.21;100781.88;4989487;28;20309;-93
2021/03/06 01:34:37;;;;;;;7.40;5.53;;;;;;;-4.04;84.00;100778.72;5010674;28;20515;-94
2021/03/06 01:37:17;;;;;;;7.03;5.30;;;;;;;-4.09;83.60;100778.16;5018713;28;20233;-91
2021/03/06 01:40:06;;;;;;;8.27;5.60;;;;;;;-4.14;83.81;100772.38;5003744;28;20219;-93
2021/03/06 01:43:02;;;;;;;8.10;5.60;;;;;;;-4.12;84.04;100778.38;5015193;28;20227;-94
2021/03/06 01:45:49;;;;;;;6.37;5.33;;;;;;;-4.18;84.49;100782.22;5016944;28;20231;-96
2021/03/06 01:48:41;;;;;;;7.27;4.90;;;;;;;-4.16;84.43;100789.97;5000047;28;20323;-95
2021/03/06 01:51:36;;;;;;;7.90;5.20;;;;;;;-4.28;83.86;100772.44;5015046;28;20665;-92
2021/03/06 01:54:29;;;;;;;5.70;4.97;;;;;;;-4.21;84.25;100787.66;5020401;28;20239;-91
2021/03/06 01:57:23;;;;;;;9.93;5.83;;;;;;;-4.21;84.96;100799.91;5021002;28;20229;-95
2021/03/06 02:00:12;;;;;;;7.00;5.40;;;;;;;-4.36;85.53;100785.16;5023583;28;20253;-93
2021/03/06 02:03:06;;;;;;;8.87;5.43;;;;;;;-4.18;85.83;100804.94;5014341;28;20264;-94
2021/03/06 02:06:05;;;;;;;9.27;5.67;;;;;;;-4.22;85.75;100787.75;5033073;28;20280;-95
2021/03/06 02:09:01;;;;;;;7.37;4.97;;;;;;;-4.25;85.73;100812.34;5035406;28;20213;-95
2021/03/06 02:11:57;;;;;;;7.77;5.20;;;;;;;-4.42;86.20;100796.84;5035681;28;20652;-92
2021/03/06 02:15:19;;;;;;;7.87;5.60;;;;;;;-4.34;85.81;100818.16;5028415;28;20222;-95
2021/03/06 02:18:17;;;;;;;7.33;5.27;;;;;;;-4.66;86.22;100793.97;5014547;28;20280;-93
2021/03/06 02:21:32;;;;;;;8.20;5.17;;;;;;;-4.56;86.12;100813.41;5032237;28;20222;-95
2021/03/06 02:24:38;;;;;;;5.97;4.90;;;;;;;-4.53;85.62;100812.41;5034139;28;20229;-93
2021/03/06 02:27:47;;;;;;;8.20;5.73;;;;;;;-4.67;86.27;100794.09;5015714;28;20299;-93
2021/03/06 02:30:39;;;;;;;6.43;5.10;;;;;;;-4.78;86.86;100783.44;5025627;28;20232;-94
2021/03/06 02:33:26;;;;;;;9.37;5.50;;;;;;;-4.78;87.19;100792.13;5034602;28;20245;-95
2021/03/06 02:36:02;;;;;;;7.33;5.03;;;;;;;-4.87;87.69;100784.84;5021573;28;20215;-95
2021/03/06 02:38:44;;;;;;;9.13;5.33;;;;;;;-4.71;87.62;100797.84;5014302;28;20233;-94
2021/03/06 02:41:35;;;;;;;7.27;5.33;;;;;;;-4.70;87.56;100816.03;5045702;28;20226;-92
2021/03/06 02:44:31;;;;;;;8.53;5.33;;;;;;;-4.84;87.07;100794.28;5034872;28;20261;-94
2021/03/06 02:47:18;;;;;;;7.33;5.47;;;;;;;-5.04;88.01;100764.13;4995236;28;20227;-92
2021/03/06 02:50:16;;;;;;;7.40;5.10;;;;;;;-4.74;87.00;100824.16;4989207;28;20349;-95
2021/03/06 02:53:13;;;;;;;7.07;5.23;;;;;;;-4.89;87.69;100810.22;5020575;28;20676;-95
2021/03/06 02:56:00;;;;;;;6.40;4.60;;;;;;;-5.07;87.02;100806.97;5023033;28;20233;-94
2021/03/06 02:59:16;;;;;;;5.70;4.30;;;;;;;-4.88;87.39;100830.22;5015266;28;20227;-92
2021/03/06 03:02:27;;;;;;;7.47;4.57;;;;;;;-4.93;87.56;100832.28;5014179;28;20234;-88
2021/03/06 03:05:38;;;;;;;5.90;4.60;;;;;;;-4.98;87.22;100826.47;5017305;28;20217;-95
2021/03/06 03:08:38;;;;;;;8.67;5.57;;;;;;;-5.05;88.04;100833.00;5048990;28;20234;-93
2021/03/06 03:11:33;;;;;;;6.50;4.63;;;;;;;-5.14;87.32;100834.41;5023229;28;20750;-93
2021/03/06 03:14:15;;;;;;;9.10;4.70;;;;;;;-5.22;87.08;100823.53;5014401;28;20357;-94
2021/03/06 03:16:54;;;;;;;7.80;4.93;;;;;;;-5.18;87.74;100827.69;5015520;28;20218;-91
2021/03/06 03:20:02;;;;;;;6.27;4.50;;;;;;;-5.19;87.64;100840.81;5029549;28;20277;-89
2021/03/06 03:22:45;;;;;;;5.63;3.87;;;;;;;-5.27;86.69;100845.66;5009972;28;20245;-91
2021/03/06 03:25:32;;;;;;;7.10;4.67;;;;;;;-5.34;86.40;100850.41;5015645;28;20254;-93
2021/03/06 03:28:18;;;;;;;6.87;4.20;;;;;;;-5.39;88.21;100839.38;5035091;28;20222;-95
2021/03/06 03:31:12;;;;;;;5.57;4.17;;;;;;;-5.63;87.99;100802.47;5030238;28;20219;-93
2021/03/06 03:34:04;;;;;;;6.03;4.37;;;;;;;-5.52;88.50;100827.97;5003297;28;20231;-93
2021/03/06 03:36:53;;;;;;;7.83;5.30;;;;;;;-5.67;88.52;100815.78;5029449;28;20225;-94
2021/03/06 03:39:54;;;;;;;5.90;4.57;;;;;;;-5.43;89.10;100850.94;5038220;28;20229;-92
2021/03/06 03:42:49;;;;;;;7.03;4.60;;;;;;;-5.42;89.43;100868.28;5018790;28;20222;-96
2021/03/06 03:45:48;;;;;;;7.37;4.53;;;;;;;-5.60;89.07;100838.81;5022189;28;20589;-95
2021/03/06 03:48:42;;;;;;;8.20;4.70;;;;;;;-5.50;89.67;100858.28;5018485;28;20223;-92
2021/03/06 03:51:35;;;;;;;6.23;4.53;;;;;;;-5.53;89.97;100868.91;4989867;28;20277;-96
2021/03/06 03:54:32;;;;;;;7.37;4.87;;;;;;;-5.63;89.41;100852.06;4974203;28;20602;-94
2021/03/06 03:57:23;;;;;;;7.03;4.70;;;;;;;-5.65;89.42;100850.50;5013940;28;20233;-94
2021/03/06 04:00:25;;;;;;;5.87;4.70;;;;;;;-5.62;89.44;100852.91;5037414;28;20292;-92
2021/03/06 04:03:16;;;;;;;9.40;4.83;;;;;;;-5.84;90.36;100814.16;5018280;28;20254;-91
2021/03/06 04:06:06;;;;;;;7.33;4.43;;;;;;;-5.54;91.47;100872.44;5019265;28;20231;-92
2021/03/06 04:08:55;;;;;;;5.97;4.80;;;;;;;-5.68;91.36;100841.03;5036701;28;20641;-93
2021/03/06 04:11:46;;;;;;;7.83;5.37;;;;;;;-5.67;90.85;100845.34;5001333;28;20225;-95
2021/03/06 04:14:42;;;;;;;6.40;4.60;;;;;;;-5.59;90.93;100864.03;4986740;28;20309;-93
2021/03/06 04:17:28;;;;;;;6.60;4.70;;;;;;;-5.74;91.46;100853.63;5014872;28;20226;-95
2021/03/06 04:20:17;;;;;;;9.57;5.27;;;;;;;-5.68;91.68;100851.50;5005016;28;20249;-89
2021/03/06 04:23:00;;;;;;;7.87;5.60;;;;;;;-5.66;90.68;100852.25;4989930;28;20726;-92
2021/03/06 04:25:43;;;;;;;7.30;6.13;;;;;;;-5.60;90.55;100851.06;5017522;28;20250;-95
2021/03/06 04:28:26;;;;;;;9.47;8.47;;;;;;;-5.64;90.52;100854.75;5001614;28;20241;-92
2021/03/06 04:31:16;;;;;;;13.43;12.00;;;;;;;-5.54;90.67;100867.22;4999939;28;20678;-92
2021/03/06 04:34:06;;;;;;;13.87;12.50;;;;;;;-5.64;90.13;100876.50;5017556;28;20273;-93
2021/03/06 04:36:50;;;;;;;12.23;10.87;;;;;;;-5.75;90.81;100871.06;5005396;28;20222;-95
2021/03/06 04:39:32;;;;;;;11.33;7.93;;;;;;;-5.65;90.89;100869.59;5021535;28;20234;-94
2021/03/06 04:42:22;;;;;;;8.67;6.50;;;;;;;-5.59;91.05;100886.69;5014475;28;20219;-93
2021/03/06 04:45:04;;;;;;;6.97;6.07;;;;;;;-5.70;90.91;100883.84;5034602;28;20229;-95
2021/03/06 04:47:50;;;;;;;7.57;6.10;;;;;;;-5.94;91.23;100859.97;5030954;28;20226;-95
2021/03/06 04:50:38;;;;;;;6.63;4.90;;;;;;;-5.86;91.24;100879.47;5004649;28;20226;-93
2021/03/06 04:53:24;;;;;;;7.73;5.30;;;;;;;-5.74;91.71;100898.84;5029856;28;20233;-90
2021/03/06 04:56:11;;;;;;;7.80;5.00;;;;;;;-5.81;91.47;100884.44;5035652;28;20233;-96
2021/03/06 04:58:56;;;;;;;6.07;4.63;;;;;;;-5.92;90.92;100860.72;5021265;28;20232;-93
2021/03/06 05:01:49;;;;;;;8.33;4.27;;;;;;;-5.79;91.09;100880.84;5007894;28;20272;-91
2021/03/06 05:04:42;;;;;;;6.10;4.73;;;;;;;-5.89;91.00;100873.63;5008446;28;20276;-93
2021/03/06 05:07:36;;;;;;;6.97;4.80;;;;;;;-5.84;90.92;100882.84;5036586;28;20214;-88
2021/03/06 05:10:24;;;;;;;7.07;4.90;;;;;;;-5.98;90.81;100858.47;5035025;28;20234;-89
2021/03/06 05:13:11;;;;;;;7.03;5.57;;;;;;;-5.83;90.60;100881.06;5030604;28;20586;-93
2021/03/06 05:16:06;;;;;;;7.23;5.33;;;;;;;-5.82;90.64;100887.97;5021156;28;20222;-94
2021/03/06 05:18:48;;;;;;;8.50;6.03;;;;;;;-5.83;90.79;100888.88;5029604;28;20226;-92
2021/03/06 05:21:29;;;;;;;7.07;5.53;;;;;;;-5.89;90.36;100895.34;5050531;28;20248;-92
2021/03/06 05:24:14;;;;;;;6.77;5.33;;;;;;;-6.21;89.86;100853.69;5035857;28;20312;-91
2021/03/06 05:27:02;;;;;;;6.27;4.50;;;;;;;-6.19;89.72;100877.91;5036028;28;20637;-91
2021/03/06 05:29:54;;;;;;;7.50;5.40;;;;;;;-6.04;89.40;100900.56;5016168;28;20251;-94
2021/03/06 05:32:41;;;;;;;7.00;5.73;;;;;;;-6.09;90.72;100890.38;5001138;28;20829;-91
2021/03/06 05:35:29;;;;;;;8.03;5.13;;;;;;;-6.21;90.74;100871.94;5030114;28;20309;-95
2021/03/06 05:38:24;;;;;;;7.53;4.90;;;;;;;-6.01;91.03;100908.19;5008941;28;20312;-91
2021/03/06 05:41:15;;;;;;;8.43;5.30;;;;;;;-6.03;90.74;100908.31;5036243;28;20226;-89
2021/03/06 05:44:03;;;;;;;7.63;5.37;;;;;;;-6.08;90.68;100891.22;5034967;28;20229;-93
2021/03/06 05:46:47;;;;;;;8.50;5.60;;;;;;;-5.81;90.43;100932.28;5034651;28;20250;-89
2021/03/06 05:49:33;;;;;;;7.40;4.90;;;;;;;-5.78;90.42;100903.38;5021966;28;20225;-90
2021/03/06 05:52:21;;;;;;;7.53;5.00;;;;;;;-5.96;89.98;100880.94;5002699;28;20222;-93
2021/03/06 05:55:01;;;;;;;9.00;5.67;;;;;;;-5.62;89.75;100905.97;5020109;28;20233;-95
2021/03/06 05:57:59;;;;;;;7.23;5.00;;;;;;;-5.53;89.81;100921.13;5035033;28;20233;-95
2021/03/06 06:00:39;;;;;;;7.97;5.40;;;;;;;-5.25;89.94;100938.69;5035777;28;20304;-93
2021/03/06 06:03:27;;;;;;;8.30;5.37;;;;;;;-5.19;89.82;100934.91;5036238;28;20316;-90
2021/03/06 06:06:20;;;;;;;7.80;5.50;;;;;;;-4.92;89.76;100946.38;5035641;28;20234;-95
2021/03/06 06:09:12;;;;;;;8.70;5.37;;;;;;;-4.82;89.52;100939.66;5049416;28;20525;-92
2021/03/06 06:12:05;;;;;;;8.20;5.67;;;;;;;-4.53;88.67;100969.34;5035582;28;20225;-94
2021/03/06 06:14:58;;;;;;;26.47;14.43;;;;;;;-4.40;88.72;100959.81;5048463;28;20317;-87
2021/03/06 06:17:45;;;;;;;17.73;10.07;;;;;;;-4.32;88.08;100938.41;5020191;28;20226;-93
2021/03/06 06:20:40;;;;;;;19.50;10.70;;;;;;;-4.31;87.37;100933.09;4997220;28;20532;-87
2021/03/06 06:23:32;;;;;;;14.50;9.10;;;;;;;-3.93;86.60;100948.22;5014843;28;20523;-88
2021/03/06 06:26:16;;;;;;;13.80;8.20;;;;;;;-3.63;85.78;100982.94;5000828;28;20223;-94
2021/03/06 06:28:58;;;;;;;8.80;6.40;;;;;;;-3.70;85.20;100930.13;5020598;28;20272;-94
2021/03/06 06:32:01;;;;;;;8.23;6.30;;;;;;;-3.20;83.78;100988.91;5021448;28;20228;-93
2021/03/06 06:35:11;;;;;;;8.67;5.83;;;;;;;-3.14;83.45;100973.66;5027209;28;20228;-95
2021/03/06 06:38:05;;;;;;;7.33;5.33;;;;;;;-2.81;82.07;100999.44;5002355;28;20217;-88
2021/03/06 06:41:07;;;;;;;6.73;5.20;;;;;;;-2.74;81.53;100977.09;5015367;28;20230;-89
2021/03/06 06:43:58;;;;;;;8.33;5.60;;;;;;;-2.69;79.61;100969.75;5010407;28;20238;-93
2021/03/06 06:46:48;;;;;;;7.47;5.67;;;;;;;-2.44;79.81;100983.84;4995462;28;20234;-92
2021/03/06 06:49:53;;;;;;;6.43;4.80;;;;;;;-2.14;79.36;100997.50;4995533;28;20695;-90
2021/03/06 06:52:51;;;;;;;8.30;5.07;;;;;;;-2.05;78.46;100996.06;4995141;28;20223;-92
2021/03/06 06:55:49;;;;;;;6.30;5.30;;;;;;;-1.91;77.48;100994.13;5014236;28;20230;-92
2021/03/06 06:58:55;;;;;;;7.17;5.00;;;;;;;-1.63;77.48;101008.78;5015902;28;20230;-94
2021/03/06 07:01:46;;;;;;;7.50;5.30;;;;;;;-1.53;76.69;100996.69;5015477;28;20276;-94
2021/03/06 07:04:58;;;;;;;8.47;5.80;;;;;;;-1.34;75.95;101010.19;4997875;28;20231;-93
2021/03/06 07:07:53;;;;;;;7.80;6.00;;;;;;;-1.31;75.29;101001.25;4999654;28;20231;-92
2021/03/06 07:10:42;;;;;;;6.60;5.10;;;;;;;-1.06;74.54;101011.66;5014495;28;20227;-92
2021/03/06 07:13:42;;;;;;;9.00;5.73;;;;;;;-0.95;74.38;101000.34;5020583;28;20285;-89
2021/03/06 07:17:06;;;;;;;6.23;5.07;;;;;;;-0.64;73.66;101026.06;5019511;28;20454;-90
2021/03/06 07:20:01;;;;;;;6.90;5.57;;;;;;;-0.62;73.18;101004.91;5008277;28;20221;-94
2021/03/06 07:22:48;;;;;;;7.57;5.30;;;;;;;-0.33;72.51;101029.06;5030262;28;20245;-89
2021/03/06 07:25:42;;;;;;;7.57;5.73;;;;;;;-0.21;71.80;101033.38;5035222;28;20265;-85
2021/03/06 07:28:21;;;;;;;7.23;5.13;;;;;;;-0.09;70.34;101037.72;5020731;28;20762;-84
2021/03/06 07:31:33;;;;;;;6.87;5.13;;;;;;;0.09;69.87;101036.31;5024814;28;20396;-83
2021/03/06 07:34:47;;;;;;;7.17;5.00;;;;;;;0.27;69.69;101040.16;5052737;28;20190;-81
2021/03/06 07:38:14;;;;;;;5.83;4.57;;;;;;;0.25;69.52;101012.22;5075251;23;20273;-81
2021/03/06 07:42:11;;;;;;;6.77;5.30;;;;;;;0.66;68.82;101046.72;5109508;23;20241;-80
2021/03/06 07:45:25;;;;;;;6.77;5.33;;;;;;;0.80;69.37;101045.63;5038898;28;20198;-82
2021/03/06 07:48:36;;;;;;;7.30;4.73;;;;;;;0.89;67.74;101045.72;5048937;28;20218;-83
2021/03/06 07:51:34;;;;;;;7.00;5.40;;;;;;;1.01;67.59;101043.06;5078098;23;20260;-82
2021/03/06 07:54:24;;;;;;;6.60;5.37;;;;;;;0.97;67.75;101031.91;5045587;28;20217;-81
2021/03/06 07:57:36;;;;;;;5.97;4.83;;;;;;;1.16;66.35;101050.59;5069702;28;20225;-82
2021/03/06 08:00:56;;;;;;;7.90;5.37;;;;;;;1.26;66.75;101056.78;5066321;28;20217;-81
2021/03/06 08:03:44;;;;;;;7.50;5.23;;;;;;;1.05;66.32;101003.09;5070617;23;20206;-81
2021/03/06 08:07:05;;;;;;;6.13;5.20;;;;;;;1.45;64.17;101049.97;5042910;28;20236;-80
2021/03/06 08:10:17;;;;;;;7.37;5.17;;;;;;;1.41;60.65;101059.97;5046498;23;20225;-81
2021/03/06 08:13:04;;;;;;;7.83;4.70;;;;;;;1.55;61.61;101056.19;4999164;23;20227;-83
2021/03/06 08:15:52;;;;;;;8.47;5.20;;;;;;;1.60;60.62;101062.75;4999442;28;20219;-83
2021/03/06 08:19:08;;;;;;;6.47;5.00;;;;;;;1.45;60.38;101034.13;5000270;28;20227;-83
2021/03/06 08:22:21;;;;;;;6.03;4.93;;;;;;;1.73;60.28;101052.00;5004349;28;20223;-82
2021/03/06 08:25:23;;;;;;;6.80;5.03;;;;;;;1.73;60.38;101039.63;5004786;28;20416;-81
2021/03/06 08:28:39;;;;;;;6.77;4.87;;;;;;;1.66;59.02;101046.41;4979825;28;20232;-82
2021/03/06 08:31:38;;;;;;;7.07;5.10;;;;;;;1.96;60.77;101060.66;5013686;28;20242;-80
2021/03/06 08:34:52;;;;;;;5.23;4.50;;;;;;;2.04;58.32;101066.13;4960162;28;20227;-81
2021/03/06 08:37:38;;;;;;;6.97;4.90;;;;;;;2.09;57.96;101046.28;4996156;28;20251;-81
2021/03/06 08:40:24;;;;;;;6.47;4.50;;;;;;;2.26;57.92;101055.38;5012167;28;20238;-81
2021/03/06 08:43:05;;;;;;;8.60;5.00;;;;;;;2.19;56.08;101044.50;5012535;28;20314;-82
2021/03/06 08:45:54;;;;;;;7.00;4.87;;;;;;;2.37;57.13;101055.31;5012180;28;20223;-80
2021/03/06 08:48:34;;;;;;;6.53;5.27;;;;;;;2.33;56.65;101039.84;5006121;28;20219;-81
2021/03/06 08:51:13;;;;;;;6.83;5.50;;;;;;;2.39;56.43;101052.53;4985609;28;20229;-81
2021/03/06 08:53:59;;;;;;;6.57;4.90;;;;;;;2.55;57.30;101052.88;4996177;28;20259;-83
2021/03/06 08:56:45;;;;;;;5.77;4.67;;;;;;;2.41;56.05;101048.78;4994966;28;20244;-83
2021/03/06 08:59:44;;;;;;;6.70;4.60;;;;;;;2.30;55.97;101029.50;5012477;28;20330;-81
2021/03/06 09:02:56;;;;;;;7.00;5.03;;;;;;;2.57;57.39;101066.78;5012554;28;20254;-82
2021/03/06 09:05:52;;;;;;;9.17;5.10;;;;;;;2.66;57.65;101071.28;5019271;23;20321;-81
2021/03/06 09:09:30;;;;;;;7.30;5.13;;;;;;;2.70;57.31;101064.78;5040746;28;20238;-81
2021/03/06 09:12:46;;;;;;;5.93;4.80;;;;;;;2.71;56.76;101066.44;5048008;23;20209;-80
2021/03/06 09:16:12;;;;;;;5.97;4.87;;;;;;;2.88;58.06;101064.97;5130009;23;20210;-79
2021/03/06 09:23:29;;;;;;;5.30;4.60;;;;;;;2.78;54.58;101038.47;5051684;23;20227;-81
2021/03/06 09:27:37;;;;;;;5.27;4.77;;;;;;;2.87;55.10;101028.88;5016733;28;20210;-82
2021/03/06 09:30:43;;;;;;;5.27;4.73;;;;;;;3.07;56.28;101051.78;5030694;28;20182;-80
2021/03/06 09:34:02;;;;;;;5.90;4.43;;;;;;;3.18;51.77;101064.88;5055529;23;20546;-80
2021/03/06 09:37:38;;;;;;;6.97;4.50;;;;;;;3.42;52.72;101065.31;5045323;23;20281;-80
2021/03/06 09:40:52;;;;;;;4.17;3.27;;;;;;;3.58;47.57;101063.94;5062569;23;20325;-80
2021/03/06 09:43:50;;;;;;;4.17;3.40;;;;;;;3.72;50.59;101069.66;5135692;23;20197;-79
2021/03/06 09:47:04;;;;;;;6.43;4.63;;;;;;;4.03;51.61;101059.69;5029190;28;20262;-80
2021/03/06 09:50:17;;;;;;;3.73;2.90;;;;;;;3.59;46.69;101023.22;5055178;23;20271;-80
2021/03/06 09:53:45;;;;;;;3.17;2.30;;;;;;;3.75;44.38;101049.97;5030697;28;20214;-81
2021/03/06 09:57:09;;;;;;;3.47;2.43;;;;;;;3.65;44.12;101049.97;5023829;28;20567;-80
2021/03/06 10:00:11;;;;;;;5.10;2.50;;;;;;;3.79;45.79;101027.50;5050145;23;20232;-80
2021/03/06 10:03:53;;;;;;;4.47;3.40;;;;;;;3.81;45.99;101033.50;5043805;23;20226;-81
2021/03/06 10:07:24;;;;;;;5.10;3.27;;;;;;;3.83;48.57;101050.94;4503978;27;18107865;-81
2021/03/06 10:11:00;;;;;;;4.93;3.30;;;;;;;3.41;46.84;101026.53;5153179;22;20223;-80
2021/03/06 10:14:21;;;;;;;3.77;3.00;;;;;;;3.65;45.54;101020.81;5094675;28;20225;-81
2021/03/06 10:17:53;;;;;;;3.37;2.63;;;;;;;3.77;43.29;101021.50;5236946;22;20241;-83
2021/03/06 10:21:04;;;;;;;4.07;2.57;;;;;;;4.03;44.54;101046.44;5084589;22;20215;-80
2021/03/06 10:24:29;;;;;;;3.43;2.83;;;;;;;4.29;44.54;101038.69;4991001;28;20212;-80
2021/03/06 10:27:55;;;;;;;3.70;2.53;;;;;;;4.76;42.44;101047.41;4681668;27;12745623;-80
2021/03/06 10:31:58;;;;;;;2.83;2.47;;;;;;;4.92;41.90;101042.28;5080824;23;20249;-81
2021/03/06 10:36:02;;;;;;;2.03;1.90;;;;;;;4.51;39.70;101043.63;5029931;23;20848;-80
2021/03/06 10:39:44;;;;;;;2.80;2.03;;;;;;;4.24;38.04;101044.44;5023298;23;20218;-80
2021/03/06 10:43:23;;;;;;;2.60;1.90;;;;;;;4.19;40.60;101043.19;4986121;23;20231;-80
2021/03/06 10:46:52;;;;;;;4.27;2.00;;;;;;;4.33;39.72;101032.13;5032679;23;20252;-80
2021/03/06 10:50:32;;;;;;;3.50;1.87;;;;;;;4.42;38.54;101037.38;4988247;28;20232;-80
2021/03/06 10:54:24;;;;;;;2.00;1.70;;;;;;;4.54;37.69;101026.56;4992275;28;20244;-81
2021/03/06 10:57:38;;;;;;;2.50;1.70;;;;;;;4.36;36.10;101014.06;5051104;23;20240;31
2021/03/06 11:05:43;;;;;;;3.00;2.07;;;;;;;4.80;38.92;101019.59;4986971;28;20227;-80
2021/03/06 11:09:29;;;;;;;2.37;2.00;;;;;;;4.83;39.55;101012.16;4989813;28;20228;-80
2021/03/06 11:13:15;;;;;;;2.87;2.00;;;;;;;4.83;39.22;101006.84;4988142;23;20222;-80
2021/03/06 11:16:59;;;;;;;2.87;2.00;;;;;;;4.95;35.79;100994.19;4995757;23;20272;-80
2021/03/06 11:20:08;;;;;;;1.93;1.73;;;;;;;5.02;35.86;101000.56;4990010;28;20232;-81
2021/03/06 11:24:04;;;;;;;3.40;1.80;;;;;;;5.21;35.75;100984.50;5028928;23;20272;-81
2021/03/06 11:28:21;;;;;;;1.93;1.70;;;;;;;5.27;35.80;100996.34;5055433;22;20682;-81
2021/03/06 11:31:39;;;;;;;2.30;2.10;;;;;;;4.79;35.37;100986.06;5013151;28;20221;-80
2021/03/06 11:35:08;;;;;;;3.00;2.07;;;;;;;4.73;36.52;100989.28;5027853;23;20219;-80
2021/03/06 11:39:04;;;;;;;3.17;1.87;;;;;;;4.87;37.10;100988.78;5035159;28;20253;-80
2021/03/06 11:46:33;;;;;;;2.77;1.50;;;;;;;4.97;36.09;100943.56;5050450;23;20235;31
2021/03/06 11:49:46;;;;;;;2.77;1.90;;;;;;;5.44;36.39;100978.69;4997219;23;20264;-80
2021/03/06 11:53:35;;;;;;;2.93;2.17;;;;;;;5.62;36.63;100963.56;4996763;28;20255;-81
2021/03/06 11:56:56;;;;;;;3.00;2.00;;;;;;;5.61;35.53;100968.03;4997933;28;20219;-80
2021/03/06 12:00:01;;;;;;;2.50;1.93;;;;;;;5.59;35.54;100971.84;5035275;23;20402;-80
2021/03/06 12:04:07;;;;;;;3.80;2.20;;;;;;;5.34;34.68;100915.00;5056179;23;20249;-80
2021/03/06 12:07:41;;;;;;;3.37;2.10;;;;;;;5.60;35.22;100960.22;5034313;28;20239;-80
2021/03/06 12:11:05;;;;;;;2.30;1.90;;;;;;;5.94;35.43;100950.50;4993137;23;20234;-80
2021/03/06 12:17:57;;;;;;;2.87;2.20;;;;;;;5.44;32.72;100934.34;4971541;28;20229;-80
2021/03/06 12:25:11;;;;;;;1.83;1.73;;;;;;;5.58;33.25;100939.09;4957817;29;20268;-80
2021/03/06 12:28:42;;;;;;;2.90;1.60;;;;;;;5.87;33.67;100933.50;4957754;28;20622;-81
2021/03/06 12:31:59;;;;;;;1.73;1.63;;;;;;;5.70;30.90;100907.75;5004978;23;20253;-81
2021/03/06 12:35:46;;;;;;;2.00;1.73;;;;;;;5.40;32.63;100921.53;4993259;28;20227;-80
2021/03/06 12:38:36;;;;;;;2.00;1.77;;;;;;;5.80;31.49;100934.25;5011960;28;20314;-80
2021/03/06 12:42:09;;;;;;;1.60;1.47;;;;;;;6.04;32.28;100913.97;4992059;23;20235;-80
2021/03/06 12:45:17;;;;;;;2.97;1.93;;;;;;;5.97;30.40;100914.78;5007394;23;20234;-82
2021/03/06 12:48:23;;;;;;;2.30;1.57;;;;;;;5.65;30.64;100918.03;5019440;23;20226;-80
2021/03/06 12:52:02;;;;;;;1.87;1.67;;;;;;;5.70;31.29;100913.06;5012375;28;20247;-80
2021/03/06 12:55:16;;;;;;;1.80;1.70;;;;;;;5.80;31.71;100907.66;5040867;23;20230;-80
2021/03/06 12:58:16;;;;;;;3.17;2.20;;;;;;;5.95;32.95;100898.97;5041776;23;20721;-80
2021/03/06 13:02:00;;;;;;;2.37;2.10;;;;;;;6.03;33.95;100896.34;5013810;28;20267;-81
2021/03/06 13:05:01;;;;;;;3.50;2.40;;;;;;;6.03;33.35;100859.09;5021365;23;20228;-80
2021/03/06 13:08:13;;;;;;;2.40;2.20;;;;;;;6.10;32.51;100883.25;5042856;23;20237;-79
2021/03/06 13:11:32;;;;;;;2.73;2.10;;;;;;;6.11;33.08;100868.94;4992413;23;20251;-80
2021/03/06 13:14:31;;;;;;;2.10;1.90;;;;;;;6.20;32.19;100886.59;5072367;23;20230;-80
2021/03/06 13:18:27;;;;;;;2.60;2.40;;;;;;;5.94;32.56;100877.84;5060039;23;20230;-79
2021/03/06 13:22:15;;;;;;;3.43;2.37;;;;;;;6.32;34.08;100873.81;5054923;28;20645;-80
2021/03/06 13:25:40;;;;;;;3.17;2.20;;;;;;;6.52;33.33;100876.06;5051933;28;20271;-79
2021/03/06 13:28:54;;;;;;;2.77;2.30;;;;;;;6.28;32.89;100862.66;5074885;23;20268;-80
2021/03/06 13:32:49;;;;;;;2.40;2.20;;;;;;;6.27;32.95;100868.16;5064624;23;20233;-79
2021/03/06 13:36:23;;;;;;;2.33;2.13;;;;;;;6.34;33.10;100838.06;5001111;28;20226;-80
2021/03/06 13:39:35;;;;;;;3.40;2.40;;;;;;;6.51;31.38;100834.44;5003105;23;20235;-79
2021/03/06 13:43:27;;;;;;;2.20;2.00;;;;;;;6.51;30.20;100831.78;4991739;28;20228;-78
2021/03/06 13:47:43;;;;;;;2.77;2.40;;;;;;;6.31;32.22;100843.72;5023932;23;20269;-79
2021/03/06 13:51:23;;;;;;;2.70;2.50;;;;;;;6.25;33.36;100838.22;5135794;23;20230;-78
2021/03/06 13:54:52;;;;;;;3.83;2.70;;;;;;;6.33;32.23;100832.91;5060325;23;20241;-79
2021/03/06 13:58:25;;;;;;;3.13;2.40;;;;;;;6.49;32.69;100836.41;5051266;28;20190;-78
2021/03/06 14:01:28;;;;;;;2.43;2.10;;;;;;;6.67;32.20;100836.31;5057007;23;20226;-79
2021/03/06 14:04:38;;;;;;;2.57;2.37;;;;;;;6.91;31.50;100830.13;5036035;28;20236;-79
2021/03/06 14:07:51;;;;;;;2.40;2.20;;;;;;;6.63;31.76;100824.28;5050175;28;20236;-79
2021/03/06 14:11:14;;;;;;;2.43;2.20;;;;;;;6.57;32.71;100811.66;5049546;28;20221;-78
2021/03/06 14:14:43;;;;;;;2.60;2.40;;;;;;;6.42;32.35;100792.00;5003735;23;20203;-79
2021/03/06 14:18:26;;;;;;;2.33;2.13;;;;;;;6.38;32.10;100811.97;5041237;23;20258;-79
2021/03/06 14:21:30;;;;;;;2.60;2.37;;;;;;;6.27;32.08;100796.28;5061591;23;20313;-79
2021/03/06 14:24:41;;;;;;;2.50;2.30;;;;;;;6.33;32.03;100812.44;5056361;23;20230;-79
2021/03/06 14:27:49;;;;;;;3.70;2.40;;;;;;;5.62;32.66;100780.09;5043128;23;20237;-79
2021/03/06 14:31:32;;;;;;;3.40;2.63;;;;;;;5.86;33.28;100785.50;5058939;23;20229;-79
2021/03/06 14:35:07;;;;;;;2.43;2.23;;;;;;;6.25;33.52;100796.47;5048623;28;20252;-79
2021/03/06 14:38:03;;;;;;;2.57;2.30;;;;;;;6.08;32.79;100797.41;5058987;23;20217;-79
2021/03/06 14:41:29;;;;;;;3.33;2.23;;;;;;;6.33;33.56;100792.97;5038544;28;20214;-79
2021/03/06 14:44:26;;;;;;;2.70;2.13;;;;;;;6.11;32.15;100773.97;5052368;28;20304;-79
2021/03/06 14:47:44;;;;;;;2.30;2.00;;;;;;;5.92;34.10;100749.50;5024024;23;20227;-79